Time;durP1;ratioP1;P1;durP2;ratioP2;P2;SDS_P1;SDS_P2;PMS_P1;PMS_P2;Temp;Humidity;BMP_temperature;BMP_pressure;BME280_temperature;BME280_humidity;BME280_pressure;Samples;Min_cycle;Max_cycle;Signal;HPM_P1;HPM_P2
2023/06/24 00:00:14;;;;;;;;;;;;;;;25.27;50.65;100813.22;4947438;29;19914;-80
2023/06/24 00:03:07;;;;;;;;;;;;;;;25.54;45.09;100806.56;4945054;29;19915;-79
2023/06/24 00:05:56;;;;;;;;;;;;;;;25.46;46.97;100807.84;4944005;29;19914;-79
2023/06/24 00:08:41;;;;;;;;;;;;;;;25.27;46.74;100802.88;4961867;29;19914;-79
2023/06/24 00:11:29;;;;;;;;;;;;;;;25.34;45.88;100799.25;4963770;29;19914;-79
2023/06/24 00:14:21;;;;;;;;;;;;;;;25.31;45.17;100798.06;4949774;29;19914;-79
2023/06/24 00:17:08;;;;;;;;;;;;;;;25.28;46.08;100807.25;4949400;29;19914;-79
2023/06/24 00:20:00;;;;;;;;;;;;;;;25.21;45.72;100796.16;4955041;28;20308;-79
2023/06/24 00:22:49;;;;;;;;;;;;;;;25.05;46.25;100790.34;4963682;29;19914;-79
2023/06/24 00:25:41;;;;;;;;;;;;;;;25.11;44.76;100785.94;4951037;29;19918;-79
2023/06/24 00:28:33;;;;;;;;;;;;;;;25.16;34.30;100774.34;4970407;28;19918;-79
2023/06/24 00:31:23;;;;;;;;;;;;;;;25.16;32.28;100768.78;4979453;28;19914;-79
2023/06/24 00:34:15;;;;;;;;;;;;;;;25.25;30.29;100769.09;4963228;29;19915;-79
2023/06/24 00:37:08;;;;;;;;;;;;;;;25.27;31.54;100763.09;4953672;28;19914;-79
2023/06/24 00:40:03;;;;;;;;;;;;;;;25.31;29.36;100753.50;4948669;29;19919;-79
2023/06/24 00:42:55;;;;;;;;;;;;;;;25.24;29.48;100748.03;4935901;29;20297;-78
2023/06/24 00:45:48;;;;;;;;;;;;;;;25.38;31.47;100759.00;4946893;29;19918;-78
2023/06/24 00:48:40;;;;;;;;;;;;;;;25.23;29.66;100748.44;4943981;29;19915;-79
2023/06/24 00:51:30;;;;;;;;;;;;;;;25.26;29.54;100755.94;4948325;29;19918;-79
2023/06/24 00:54:22;;;;;;;;;;;;;;;25.11;31.09;100758.91;4943590;29;19915;-79
2023/06/24 00:57:14;;;;;;;;;;;;;;;25.19;31.92;100761.63;4938707;29;19919;-78
2023/06/24 01:00:09;;;;;;;;;;;;;;;25.06;32.94;100752.97;4952897;28;19914;-79
2023/06/24 01:03:03;;;;;;;;;;;;;;;25.04;34.43;100755.41;4951439;28;19914;-78
2023/06/24 01:05:54;;;;;;;;;;;;;;;25.05;33.08;100748.63;4942742;29;20324;-78
2023/06/24 01:08:43;;;;;;;;;;;;;;;25.18;30.01;100746.13;4959319;28;19914;-79
2023/06/24 01:11:31;;;;;;;;;;;;;;;25.30;31.78;100745.56;4957682;28;19915;-79
2023/06/24 01:14:23;;;;;;;;;;;;;;;25.46;30.47;100748.56;4944664;29;19915;-80
2023/06/24 01:17:22;;;;;;;;;;;;;;;25.61;30.76;100746.44;4959745;28;19915;-79
2023/06/24 01:20:30;;;;;;;;;;;;;;;25.52;29.60;100750.50;4956562;29;19914;-80
2023/06/24 01:23:36;;;;;;;;;;;;;;;25.58;29.90;100750.06;4960178;28;19914;-79
2023/06/24 01:26:36;;;;;;;;;;;;;;;25.61;30.19;100755.56;4956666;28;19915;-79
2023/06/24 01:29:29;;;;;;;;;;;;;;;25.66;29.11;100749.53;4966098;28;19914;-79
2023/06/24 01:32:23;;;;;;;;;;;;;;;25.64;29.93;100751.97;4950185;29;19914;-79
2023/06/24 01:35:22;;;;;;;;;;;;;;;25.56;29.84;100747.69;4966360;29;20373;-80
2023/06/24 01:38:17;;;;;;;;;;;;;;;25.59;29.93;100752.44;4950616;29;19948;-80
2023/06/24 01:41:11;;;;;;;;;;;;;;;25.59;30.16;100760.00;4961380;29;19915;-79
2023/06/24 01:44:03;;;;;;;;;;;;;;;25.51;29.80;100757.25;4949471;29;19918;-79
2023/06/24 01:46:55;;;;;;;;;;;;;;;25.55;30.46;100760.81;4949576;29;19915;-80
2023/06/24 01:49:41;;;;;;;;;;;;;;;25.53;28.42;100759.63;4955075;28;19914;-79
2023/06/24 01:52:31;;;;;;;;;;;;;;;25.44;27.88;100768.50;4956152;29;19930;-79
2023/06/24 01:55:23;;;;;;;;;;;;;;;25.50;29.56;100755.66;4952550;29;19914;-79
2023/06/24 01:58:13;;;;;;;;;;;;;;;25.75;28.55;100760.19;4970393;28;19915;-79
2023/06/24 02:01:06;;;;;;;;;;;;;;;25.70;27.58;100764.22;4968633;28;19914;-79
2023/06/24 02:03:56;;;;;;;;;;;;;;;25.78;29.72;100746.22;4952563;29;19918;-79
2023/06/24 02:06:50;;;;;;;;;;;;;;;25.84;28.98;100747.34;4955291;29;19914;-79
2023/06/24 02:09:43;;;;;;;;;;;;;;;25.92;29.05;100754.38;4953115;29;19914;-79
2023/06/24 02:12:39;;;;;;;32.23;1.97;;;;;;;26.04;32.19;100746.66;4951099;29;20384;-80
2023/06/24 02:15:35;;;;;;;2.80;1.23;;;;;;;25.97;29.94;100750.31;4952913;29;20533;-81
2023/06/24 02:18:31;;;;;;;1.92;1.15;;;;;;;25.96;30.65;100751.53;4949721;29;20425;-81
2023/06/24 02:21:27;;;;;;;2.13;1.00;;;;;;;25.97;30.52;100750.31;4952899;29;20058;-81
2023/06/24 02:24:21;;;;;;;10.95;1.50;;;;;;;25.92;30.54;100748.00;4950039;29;20414;-82
2023/06/24 02:27:14;;;;;;;;;;;;;;;25.95;29.94;100752.75;4965313;28;20069;-81
2023/06/24 02:30:10;;;;;;;4.32;1.00;;;;;;;26.01;30.02;100758.66;4955965;29;19914;-81
2023/06/24 02:33:02;;;;;;;5.88;1.73;;;;;;;26.06;29.90;100756.16;4943822;29;20526;-82
2023/06/24 02:35:54;;;;;;;2.47;0.80;;;;;;;26.07;30.03;100759.75;4934466;29;20059;-81
2023/06/24 02:38:49;;;;;;;2.03;1.20;;;;;;;26.09;30.69;100765.69;4958923;28;20051;-81
2023/06/24 02:41:44;;;;;;;2.53;1.05;;;;;;;26.07;31.03;100766.13;4942686;29;20067;-81
2023/06/24 02:44:37;;;;;;;3.33;1.75;;;;;;;25.97;33.21;100762.28;4942208;29;20051;-81
2023/06/24 02:47:30;;;;;;;6.55;2.58;;;;;;;26.00;34.26;100760.66;4930584;29;20046;-81
2023/06/24 02:50:24;;;;;;;;;;;;;;;26.05;36.73;100768.56;4943438;29;20055;-81
2023/06/24 02:53:19;;;;;;;6.32;2.28;;;;;;;26.03;36.75;100768.16;4945130;29;19926;-81
2023/06/24 02:56:14;;;;;;;5.55;2.30;;;;;;;26.04;37.53;100771.75;4941983;29;20043;-81
2023/06/24 02:59:09;;;;;;;8.55;2.85;;;;;;;25.98;38.95;100777.00;4945265;29;20066;-81
2023/06/24 03:02:05;;;;;;;7.75;3.22;;;;;;;25.99;39.87;100786.94;4935912;29;20055;-81
2023/06/24 03:04:58;;;;;;;4.70;3.20;;;;;;;25.97;41.33;100800.50;4931861;29;20418;-81
2023/06/24 03:07:51;;;;;;;9.13;3.78;;;;;;;25.95;42.14;100805.72;4943888;29;20407;-82
2023/06/24 03:10:46;;;;;;;10.30;3.53;;;;;;;25.93;43.27;100805.34;4944254;29;20047;-81
2023/06/24 03:13:44;;;;;;;9.00;3.70;;;;;;;25.91;43.24;100808.53;4946922;29;20055;-82
2023/06/24 03:16:48;;;;;;;10.93;4.35;;;;;;;25.90;43.42;100818.13;4933428;29;20055;-82
2023/06/24 03:19:43;;;;;;;11.18;3.97;;;;;;;25.88;44.18;100826.09;4935012;29;20043;-81
2023/06/24 03:22:38;;;;;;;9.80;3.88;;;;;;;25.82;44.64;100832.53;4954585;28;20422;-81
2023/06/24 03:25:35;;;;;;;12.27;4.85;;;;;;;25.75;45.18;100841.75;4946812;29;20050;-81
2023/06/24 03:28:27;;;;;;;;;;;;;;;25.52;46.81;100858.31;4992806;23;20073;-81
2023/06/24 03:31:30;;;;;;;12.48;5.10;;;;;;;25.57;46.62;100855.09;4993810;28;19918;-77
2023/06/24 03:34:25;;;;;;;6.53;3.92;;;;;;;25.62;46.55;100857.44;4983835;28;20038;-79
2023/06/24 03:37:19;;;;;;;15.30;5.43;;;;;;;25.63;46.52;100858.22;4995079;28;20050;-80
2023/06/24 03:40:12;;;;;;;;;;;;;;;25.70;46.72;100869.31;4971745;28;20502;-79
2023/06/24 03:43:06;;;;;;;12.40;4.95;;;;;;;25.76;46.70;100873.19;4982162;28;19917;-79
2023/06/24 03:46:00;;;;;;;10.93;4.50;;;;;;;25.65;47.36;100878.13;4966767;28;20070;-81
2023/06/24 03:48:54;;;;;;;18.80;5.32;;;;;;;25.58;47.63;100880.97;4994358;28;20042;-79
2023/06/24 03:51:49;;;;;;;9.43;3.88;;;;;;;25.65;47.23;100883.69;4981130;28;20409;-78
2023/06/24 03:54:41;;;;;;;8.18;4.05;;;;;;;25.75;46.92;100888.34;4984533;28;20045;-78
2023/06/24 03:57:33;;;;;;;;;;;;;;;25.80;46.88;100893.47;4996105;28;20050;-79
2023/06/24 04:00:27;;;;;;;8.57;4.03;;;;;;;25.79;47.54;100909.41;4980143;28;19914;-78
2023/06/24 04:03:20;;;;;;;9.98;3.97;;;;;;;25.85;47.44;100918.09;4983245;28;20045;-79
2023/06/24 04:06:15;;;;;;;8.63;4.35;;;;;;;25.80;47.56;100918.56;4981180;28;20050;-78
2023/06/24 04:09:09;;;;;;;8.90;3.25;;;;;;;25.85;47.16;100926.47;4979028;28;20045;-79
2023/06/24 04:12:04;;;;;;;6.00;3.80;;;;;;;25.74;48.01;100918.22;4978418;28;20429;-81
2023/06/24 04:14:59;;;;;;;11.57;5.03;;;;;;;25.80;47.83;100918.56;4979755;28;20045;-78
2023/06/24 04:17:54;;;;;;;7.85;3.17;;;;;;;25.87;47.66;100924.03;4969858;28;20418;-79
2023/06/24 04:20:46;;;;;;;11.18;3.65;;;;;;;25.87;47.79;100924.03;4981309;28;20513;-80
2023/06/24 04:23:39;;;;;;;9.48;4.15;;;;;;;25.90;47.90;100923.22;4978822;28;20061;-77
2023/06/24 04:26:33;;;;;;;7.88;3.80;;;;;;;25.92;47.83;100932.72;4982280;28;20058;-79
2023/06/24 04:29:25;;;;;;;;;;;;;;;25.96;47.65;100943.84;4991069;28;20045;-79
2023/06/24 04:32:21;;;;;;;15.27;4.05;;;;;;;25.99;47.73;100943.03;4997065;28;19914;-78
2023/06/24 04:35:15;;;;;;;9.80;3.47;;;;;;;26.02;47.51;100938.59;4995010;28;20038;-79
2023/06/24 04:38:10;;;;;;;14.82;4.40;;;;;;;25.96;48.02;100943.84;4978981;28;20045;-79
2023/06/24 04:41:04;;;;;;;7.80;3.67;;;;;;;26.02;47.82;100949.75;4982237;28;20042;-79
2023/06/24 04:43:59;;;;;;;10.27;3.63;;;;;;;26.07;47.86;100954.88;4966583;28;20114;-80
2023/06/24 04:46:51;;;;;;;;;;;;;;;26.00;47.97;100944.63;4983636;28;20049;-78
2023/06/24 04:49:46;;;;;;;5.80;3.40;;;;;;;26.07;47.59;100950.09;4978747;28;19913;-79
2023/06/24 04:52:38;;;;;;;;;;;;;;;26.12;47.80;100952.41;4981078;28;20421;-78
2023/06/24 04:55:32;;;;;;;10.90;3.45;;;;;;;26.18;47.79;100955.53;4987192;28;20384;-79
2023/06/24 04:58:24;;;;;;;10.43;3.80;;;;;;;26.27;47.68;100965.03;4980147;28;20042;-79
2023/06/24 05:01:19;;;;;;;15.68;3.75;;;;;;;26.30;47.34;100969.00;4978393;28;20505;-79
2023/06/24 05:04:13;;;;;;;9.57;4.38;;;;;;;26.35;47.19;100972.13;4980842;28;20046;-79
2023/06/24 05:07:06;;;;;;;;;;;;;;;26.38;47.69;100976.06;4979754;28;20065;-81
2023/06/24 05:10:00;;;;;;;16.63;4.35;;;;;;;26.38;47.63;100974.06;4982874;28;20308;-82
2023/06/24 05:12:55;;;;;;;8.60;4.15;;;;;;;26.40;48.04;100979.22;4978361;28;20061;-79
2023/06/24 05:15:49;;;;;;;8.45;2.83;;;;;;;26.41;47.66;100982.81;4978025;28;20547;-80
2023/06/24 05:18:44;;;;;;;39.88;5.10;;;;;;;26.43;47.94;100985.97;4979868;28;20053;-79
2023/06/24 05:21:38;;;;;;;24.27;4.70;;;;;;;26.49;47.94;100996.25;4978919;28;20053;-77
2023/06/24 05:24:30;;;;;;;;;;;;;;;26.52;47.75;100989.81;4982889;28;20043;-77
2023/06/24 05:27:24;;;;;;;9.00;3.58;;;;;;;26.49;48.10;100990.66;4987947;28;19913;-80
2023/06/24 05:30:20;;;;;;;8.55;4.07;;;;;;;26.44;47.79;100995.91;4960854;28;20061;-80
2023/06/24 05:33:15;;;;;;;8.75;3.03;;;;;;;26.45;47.83;100997.50;4968222;28;20119;-79
2023/06/24 05:36:07;;;;;;;;;;;;;;;26.47;47.80;100997.84;4966306;28;20037;-79
2023/06/24 05:39:02;;;;;;;11.43;2.78;;;;;;;26.51;47.57;100991.06;4992536;28;19914;-79
2023/06/24 05:41:54;;;;;;;9.07;3.67;;;;;;;26.47;47.88;100992.28;4970177;28;20062;-80
2023/06/24 05:44:46;;;;;;;29.02;4.22;;;;;;;26.55;47.55;101002.16;4977716;28;20050;-79
2023/06/24 05:47:38;;;;;;;15.95;3.97;;;;;;;26.67;47.20;101007.97;4982229;28;20045;-82
2023/06/24 05:50:33;;;;;;;11.73;3.60;;;;;;;26.20;48.13;101009.69;4992053;28;20039;-81
2023/06/24 05:53:25;;;;;;;;;;;;;;;26.09;47.85;101013.81;4982643;28;20042;-79
2023/06/24 05:56:19;;;;;;;20.58;4.05;;;;;;;26.43;47.33;101016.63;4969023;28;19914;-76
2023/06/24 05:59:11;;;;;;;11.32;3.70;;;;;;;26.60;47.05;101010.84;4964952;28;20141;-78
2023/06/24 06:02:06;;;;;;;12.18;3.58;;;;;;;26.38;46.00;101010.31;4972521;28;20042;-78
2023/06/24 06:05:01;;;;;;;12.05;4.80;;;;;;;25.64;47.10;101015.81;4972188;28;20043;-78
2023/06/24 06:07:53;;;;;;;;;;;;;;;25.81;47.74;101023.22;4962695;28;20043;-74
2023/06/24 06:10:47;;;;;;;16.83;4.13;;;;;;;26.43;45.87;101022.22;4975463;28;19914;-76
2023/06/24 06:13:42;;;;;;;11.18;3.92;;;;;;;26.52;45.69;101036.44;4972967;28;20518;-77
2023/06/24 06:16:36;;;;;;;10.70;3.85;;;;;;;26.92;45.08;101034.81;4959215;28;20532;-77
2023/06/24 06:19:31;;;;;;;8.18;3.70;;;;;;;27.17;44.22;101026.88;4958302;28;20038;-77
2023/06/24 06:22:23;;;;;;;12.15;3.58;;;;;;;26.73;44.10;101042.56;4958441;28;20062;-78
2023/06/24 06:25:18;;;;;;;22.05;4.88;;;;;;;26.19;45.90;101038.00;4963790;28;20046;-76
2023/06/24 06:28:10;;;;;;;;;;;;;;;26.66;44.56;101050.25;4966480;28;20046;-77
2023/06/24 06:31:04;;;;;;;7.53;3.35;;;;;;;26.72;43.57;101040.97;4992099;28;19914;-77
2023/06/24 06:33:59;;;;;;;5.15;2.67;;;;;;;27.20;43.19;101043.56;4979856;28;20408;-76
2023/06/24 06:36:53;;;;;;;11.60;3.22;;;;;;;27.54;41.71;101034.31;4978701;28;20037;-77
2023/06/24 06:39:46;;;;;;;11.80;3.95;;;;;;;26.57;43.49;101049.94;4984441;28;20043;-78
2023/06/24 06:42:41;;;;;;;10.43;3.78;;;;;;;26.27;45.28;101053.47;4982465;28;20038;-76
2023/06/24 06:45:37;;;;;;;13.00;3.95;;;;;;;26.56;43.82;101046.38;4974442;28;20066;-79
2023/06/24 06:48:32;;;;;;;6.68;2.97;;;;;;;26.58;42.49;101045.94;4980189;28;20054;-78
2023/06/24 06:51:24;;;;;;;12.82;3.47;;;;;;;26.69;42.45;101052.19;4994352;28;20050;-80
2023/06/24 06:54:16;;;;;;;10.40;3.47;;;;;;;26.58;43.14;101059.91;4971236;28;20030;-79
2023/06/24 06:57:10;;;;;;;5.50;3.17;;;;;;;26.91;43.05;101059.13;4972920;28;20420;-78
2023/06/24 07:00:05;;;;;;;11.48;3.40;;;;;;;27.18;43.95;101062.75;4966343;28;20057;-77
2023/06/24 07:02:59;;;;;;;7.47;3.08;;;;;;;26.98;41.91;101056.22;4979466;28;20042;-79
2023/06/24 07:05:51;;;;;;;10.70;3.83;;;;;;;27.37;42.34;101052.13;4999905;28;20041;-77
2023/06/24 07:08:46;;;;;;;10.35;3.85;;;;;;;27.20;43.00;101054.75;4978313;28;20050;-81
2023/06/24 07:11:38;;;;;;;;;;;;;;;27.20;42.13;101057.53;4977553;28;20050;-77
2023/06/24 07:14:33;;;;;;;11.98;4.20;;;;;;;27.17;43.59;101061.16;4971986;28;19918;-77
2023/06/24 07:17:25;;;;;;;;;;;;;;;27.23;41.14;101061.47;4990711;28;20409;-78
2023/06/24 07:20:19;;;;;;;5.13;2.70;;;;;;;27.53;39.75;101061.44;4966936;28;19914;-77
2023/06/24 07:23:11;;;;;;;;;;;;;;;27.95;39.27;101061.97;4991941;28;20045;-78
2023/06/24 07:26:03;;;;;;;8.23;3.47;;;;;;;27.79;40.16;101065.44;4967620;28;19925;-78
2023/06/24 07:28:57;;;;;;;6.93;2.85;;;;;;;27.81;39.77;101062.22;4977849;28;20524;-79
2023/06/24 07:31:47;;;;;;;6.95;3.53;;;;;;;28.75;37.59;101070.09;4991557;28;20050;-80
2023/06/24 07:34:41;;;;;;;13.38;4.22;;;;;;;29.45;37.10;101069.81;4993721;28;20046;-79
2023/06/24 07:37:36;;;;;;;4.30;2.55;;;;;;;29.62;35.70;101073.41;4993175;28;20042;-80
2023/06/24 07:40:28;;;;;;;;;;;;;;;29.98;34.33;101073.34;4984445;28;20049;-79
2023/06/24 07:43:20;;;;;;;4.65;2.78;;;;;;;29.90;34.92;101075.53;4985894;28;19925;-80
2023/06/24 07:46:15;;;;;;;6.18;2.63;;;;;;;29.32;35.61;101077.31;5003468;28;20417;-81
2023/06/24 07:49:07;;;;;;;5.00;2.47;;;;;;;29.30;34.06;101068.53;4985438;28;20121;-80
2023/06/24 07:52:02;;;;;;;5.00;2.67;;;;;;;29.10;35.95;101076.19;4986587;28;20563;-81
2023/06/24 07:54:54;;;;;;;;;;;;;;;28.85;36.77;101077.50;5001119;28;20096;-78
2023/06/24 07:57:49;;;;;;;8.25;3.63;;;;;;;29.97;34.31;101080.94;4961450;28;20319;-79
2023/06/24 08:00:43;;;;;;;17.63;3.58;;;;;;;30.07;32.64;101079.13;4969649;28;20417;-79
2023/06/24 08:03:41;;;;;;;15.23;3.10;;;;;;;33.06;29.41;101081.22;4989688;28;20041;-83
2023/06/24 08:06:36;;;;;;;6.95;2.40;;;;;;;34.47;27.59;101081.50;4990286;28;20046;-81
2023/06/24 08:09:28;;;;;;;11.13;3.40;;;;;;;35.46;25.89;101080.50;4993883;28;20053;-81
2023/06/24 08:12:22;;;;;;;9.23;2.63;;;;;;;36.21;25.29;101085.31;4993650;28;20042;-78
2023/06/24 08:15:17;;;;;;;5.78;2.50;;;;;;;37.08;23.79;101081.81;4977769;28;20057;-80
2023/06/24 08:18:11;;;;;;;8.68;2.65;;;;;;;38.51;22.07;101084.38;4995717;28;20045;-81
2023/06/24 08:21:03;;;;;;;9.13;3.28;;;;;;;37.77;23.15;101074.63;4979019;28;20118;-80
2023/06/24 08:23:58;;;;;;;3.92;2.28;;;;;;;37.26;23.28;101070.25;4969038;28;20054;-83
2023/06/24 08:26:52;;;;;;;6.72;2.47;;;;;;;38.51;21.77;101075.84;4990731;28;20045;-82
2023/06/24 08:29:47;;;;;;;6.32;2.30;;;;;;;36.20;22.49;101083.72;4986730;28;20564;-81
2023/06/24 08:32:39;;;;;;;5.03;2.33;;;;;;;37.69;20.79;101073.50;4991956;28;20045;-80
2023/06/24 08:35:34;;;;;;;8.60;2.90;;;;;;;38.44;19.65;101078.34;4976954;28;20071;-79
2023/06/24 08:38:26;;;;;;;5.78;2.65;;;;;;;38.72;20.26;101073.72;4986330;28;20050;-80
2023/06/24 08:41:20;;;;;;;4.15;2.63;;;;;;;39.00;20.00;101071.19;4985567;28;20049;-81
2023/06/24 08:44:12;;;;;;;5.75;2.22;;;;;;;39.24;18.88;101065.16;4971430;28;20135;-81
2023/06/24 08:47:07;;;;;;;11.38;3.05;;;;;;;38.34;20.34;101060.66;4978229;28;20045;-81
2023/06/24 08:50:21;;;;;;;13.38;2.42;;;;;;;39.02;19.12;101059.28;4980282;28;20035;-79
2023/06/24 08:53:17;;;;;;;8.75;2.58;;;;;;;37.24;19.09;101052.94;4995259;28;20054;-82
2023/06/24 08:56:13;;;;;;;2.63;1.48;;;;;;;35.66;20.08;101053.69;4998227;28;20041;-80
2023/06/24 08:59:07;;;;;;;4.13;2.13;;;;;;;36.11;19.62;101061.91;4978673;28;20452;-80
2023/06/24 09:02:02;;;;;;;36.28;3.90;;;;;;;34.93;20.44;101059.63;4994286;28;20527;-80
2023/06/24 09:04:56;;;;;;;20.55;3.22;;;;;;;31.42;26.80;101051.56;5010847;28;20531;-79
2023/06/24 09:07:52;;;;;;;7.03;2.10;;;;;;;32.10;25.73;101044.47;5012051;28;20038;-79
2023/06/24 09:10:46;;;;;;;9.27;2.20;;;;;;;32.14;25.65;101050.03;5003872;28;20048;-78
2023/06/24 09:13:41;;;;;;;5.57;1.90;;;;;;;31.89;24.07;101038.81;5015417;28;20045;-79
2023/06/24 09:16:33;;;;;;;13.55;2.72;;;;;;;31.80;25.00;101053.56;4969979;28;20061;-79
2023/06/24 09:19:34;;;;;;;11.27;2.15;;;;;;;31.67;25.08;101050.00;4977327;28;20042;-81
2023/06/24 09:22:32;;;;;;;6.85;2.53;;;;;;;31.52;25.58;101043.22;4970665;28;20046;-82
2023/06/24 09:25:24;;;;;;;7.32;2.40;;;;;;;31.35;26.48;101051.78;4997505;28;20050;-76
2023/06/24 09:28:19;;;;;;;5.18;2.00;;;;;;;31.24;26.41;101031.66;5045388;23;20058;-84
2023/06/24 09:31:14;;;;;;;6.15;1.90;;;;;;;31.16;26.69;101038.75;4974729;28;20871;-84
2023/06/24 09:34:14;;;;;;;4.07;1.58;;;;;;;31.15;26.68;101042.78;4994003;28;20041;-84
2023/06/24 09:37:08;;;;;;;7.28;2.30;;;;;;;31.12;26.79;101029.63;4983010;28;20393;-84
2023/06/24 09:40:04;;;;;;;8.57;1.85;;;;;;;31.17;26.35;101029.09;4979623;28;20058;-84
2023/06/24 09:42:57;;;;;;;6.20;1.92;;;;;;;31.10;28.51;101022.88;4981427;28;20046;-82
2023/06/24 09:45:53;;;;;;;86.00;7.55;;;;;;;31.09;27.11;101024.16;4975267;28;20054;-84
2023/06/24 09:48:47;;;;;;;4.15;1.60;;;;;;;31.26;26.70;101025.59;4957608;28;20054;-84
2023/06/24 09:51:40;;;;;;;3.40;2.33;;;;;;;31.24;25.95;101023.22;4979244;28;20054;-84
2023/06/24 09:54:34;;;;;;;8.65;3.10;;;;;;;31.22;26.93;101014.47;4976747;28;20227;-85
2023/06/24 09:57:34;;;;;;;3.40;1.63;;;;;;;31.15;25.97;101011.09;4980087;28;20049;-85
2023/06/24 10:00:26;;;;;;;3.30;2.08;;;;;;;31.09;26.79;101010.09;4996608;28;20041;-85
2023/06/24 10:03:21;;;;;;;12.10;3.25;;;;;;;31.05;26.56;101003.78;4971701;28;20053;-84
2023/06/24 10:06:15;;;;;;;3.92;2.15;;;;;;;31.00;26.21;101008.69;4976590;28;20042;-85
2023/06/24 10:09:10;;;;;;;3.65;1.88;;;;;;;30.97;26.27;101008.81;4973894;28;20057;-86
2023/06/24 10:12:02;;;;;;;5.35;1.65;;;;;;;31.07;25.80;101007.72;4976360;28;20041;-84
2023/06/24 10:14:57;;;;;;;8.90;1.98;;;;;;;31.09;25.84;101004.47;4965526;28;20062;-84
2023/06/24 10:17:49;;;;;;;14.80;2.72;;;;;;;31.12;26.54;100998.72;4976719;28;20049;-84
2023/06/24 10:20:41;;;;;;;3.85;1.90;;;;;;;31.15;25.95;100995.00;4981138;28;20049;-84
2023/06/24 10:23:58;;;;;;;4.55;2.03;;;;;;;31.11;25.55;100987.94;4977625;28;20061;-84
2023/06/24 10:26:53;;;;;;;7.32;2.00;;;;;;;31.12;25.48;100981.88;4978783;28;20061;-83
2023/06/24 10:29:56;;;;;;;8.05;1.80;;;;;;;31.27;25.83;100979.38;4983016;28;20539;-84
2023/06/24 10:32:46;;;;;;;5.53;1.92;;;;;;;31.23;25.50;100975.91;4988114;28;20045;-84
2023/06/24 10:35:46;;;;;;;7.05;2.20;;;;;;;31.28;27.30;100976.13;4983042;28;20050;-84
2023/06/24 10:38:43;;;;;;;3.30;1.60;;;;;;;31.25;25.77;100979.81;4994587;28;20527;-84
2023/06/24 10:41:37;;;;;;;5.45;1.77;;;;;;;31.33;26.56;100972.75;4985806;28;20054;-84
2023/06/24 10:44:44;;;;;;;5.18;1.50;;;;;;;31.32;26.88;100962.75;4989542;28;20054;-84
2023/06/24 10:47:38;;;;;;;7.07;1.60;;;;;;;31.43;27.57;100956.78;4978525;28;20050;-84
2023/06/24 10:50:33;;;;;;;3.75;1.70;;;;;;;31.40;25.37;100958.44;4982758;28;20527;-84
2023/06/24 10:53:26;;;;;;;15.80;1.95;;;;;;;31.43;25.04;100951.94;4974494;28;20049;-84
2023/06/24 10:56:21;;;;;;;2.13;1.50;;;;;;;31.57;24.83;100944.28;4968695;28;20042;-83
2023/06/24 10:59:14;;;;;;;1.98;1.52;;;;;;;31.62;24.91;100949.31;4978203;28;20046;-85
2023/06/24 11:02:08;;;;;;;3.08;1.85;;;;;;;31.68;25.49;100939.06;4986421;28;20049;-84
2023/06/24 11:05:04;;;;;;;6.63;1.70;;;;;;;31.74;25.53;100934.44;4985233;28;20041;-84
2023/06/24 11:07:58;;;;;;;6.40;1.70;;;;;;;31.75;25.33;100927.56;4968563;28;20110;-84
2023/06/24 11:10:53;;;;;;;17.30;2.22;;;;;;;31.66;25.89;100925.47;4964511;28;20042;-84
2023/06/24 11:13:50;;;;;;;3.65;1.83;;;;;;;31.66;26.62;100927.47;4975326;28;20054;-84
2023/06/24 11:16:45;;;;;;;2.13;1.42;;;;;;;31.78;26.75;100918.22;4968000;28;20038;-83
2023/06/24 11:19:40;;;;;;;2.58;1.63;;;;;;;31.64;25.45;100915.91;4979317;28;20054;-84
2023/06/24 11:22:32;;;;;;;3.15;1.75;;;;;;;31.80;25.38;100921.34;4985176;28;20054;-84
2023/06/24 11:25:25;;;;;;;4.18;1.40;;;;;;;31.86;25.83;100922.34;4977215;28;20049;-83
2023/06/24 11:28:19;;;;;;;6.18;1.70;;;;;;;31.90;25.88;100925.81;4980537;28;20674;-83
2023/06/24 11:31:14;;;;;;;4.22;1.88;;;;;;;31.95;24.76;100919.59;4970937;28;20049;-84
2023/06/24 11:34:11;;;;;;;4.20;1.88;;;;;;;32.10;24.87;100914.25;4995000;28;20523;-84
2023/06/24 11:37:13;;;;;;;2.63;1.52;;;;;;;32.23;24.56;100917.78;4994226;28;20079;-84
2023/06/24 11:40:10;;;;;;;5.90;2.15;;;;;;;32.22;24.48;100910.59;4993566;28;20044;-84
2023/06/24 11:43:04;;;;;;;4.82;1.88;;;;;;;32.25;25.02;100907.63;4979970;28;20046;-84
2023/06/24 11:46:01;;;;;;;3.95;1.52;;;;;;;32.28;25.50;100902.34;4981329;28;20046;-84
2023/06/24 11:48:54;;;;;;;2.05;1.33;;;;;;;32.24;27.18;100896.84;4981989;28;20615;-85
2023/06/24 11:51:50;;;;;;;3.30;1.55;;;;;;;32.16;27.85;100901.16;5000425;28;20061;-83
2023/06/24 11:54:45;;;;;;;7.32;1.88;;;;;;;32.23;27.06;100904.50;4966289;28;20519;-83
2023/06/24 11:58:04;;;;;;;4.80;1.90;;;;;;;32.16;25.54;100906.78;4985382;28;20042;-84
2023/06/24 12:00:58;;;;;;;879.55;64.45;;;;;;;32.28;24.82;100908.75;4989827;28;20057;-84
2023/06/24 12:03:53;;;;;;;8.20;1.48;;;;;;;32.26;24.09;100897.16;4974633;28;20030;-84
2023/06/24 12:06:46;;;;;;;3.33;1.70;;;;;;;32.37;24.53;100905.97;4967336;28;20066;-85
2023/06/24 12:09:41;;;;;;;7.97;1.58;;;;;;;32.42;23.93;100890.53;4964531;28;20123;-88
2023/06/24 12:12:33;;;;;;;5.07;1.37;;;;;;;32.48;24.66;100888.69;5000960;28;20057;-89
2023/06/24 12:15:28;;;;;;;19.75;5.53;;;;;;;32.47;26.33;100887.09;4985228;28;20162;-90
2023/06/24 12:18:24;;;;;;;21.35;5.05;;;;;;;32.21;27.55;100890.09;5000085;28;20034;-84
2023/06/24 12:21:18;;;;;;;16.50;5.18;;;;;;;32.33;26.58;100884.84;4972512;28;20309;-85
2023/06/24 12:24:13;;;;;;;34.80;5.65;;;;;;;32.35;26.92;100888.00;4984794;28;20042;-85
2023/06/24 12:27:06;;;;;;;10.18;2.58;;;;;;;32.25;26.79;100885.09;4988149;28;20042;-84
2023/06/24 12:30:00;;;;;;;8.88;2.25;;;;;;;32.18;25.60;100881.78;4988363;28;20054;-86
2023/06/24 12:32:55;;;;;;;6.57;1.55;;;;;;;32.29;24.98;100879.38;4969755;28;20057;-86
2023/06/24 12:35:49;;;;;;;8.88;1.70;;;;;;;32.35;24.63;100879.56;4995646;28;20056;-85
2023/06/24 12:38:44;;;;;;;2.17;1.50;;;;;;;32.35;24.72;100868.28;4986019;28;20045;-84
2023/06/24 12:41:39;;;;;;;9.43;3.90;;;;;;;32.28;25.42;100877.78;5003058;28;20053;-85
2023/06/24 12:44:33;;;;;;;6.90;2.95;;;;;;;32.36;26.35;100867.81;4996426;28;20057;-86
2023/06/24 12:47:28;;;;;;;13.10;5.18;;;;;;;32.26;26.69;100861.34;4978230;28;20053;-83
2023/06/24 12:50:23;;;;;;;16.80;2.35;;;;;;;32.22;26.34;100863.53;4982682;28;20046;-84
2023/06/24 12:53:18;;;;;;;4.07;2.40;;;;;;;32.19;26.88;100864.47;4965376;28;20046;-83
2023/06/24 12:56:14;;;;;;;272.77;19.17;;;;;;;32.19;27.19;100860.84;4978039;28;20042;-85
2023/06/24 12:59:05;;;;;;;74.45;5.03;;;;;;;32.12;27.09;100861.13;4966320;28;20050;-85
2023/06/24 13:01:57;;;;;;;5.03;1.70;;;;;;;32.10;26.49;100849.53;4985202;28;20519;-87
2023/06/24 13:04:52;;;;;;;3.97;1.73;;;;;;;32.11;25.75;100860.31;4965097;28;20050;-87
2023/06/24 13:07:43;;;;;;;4.72;1.85;;;;;;;32.13;26.10;100846.59;4976699;28;20077;-84
2023/06/24 13:10:38;;;;;;;5.88;1.50;;;;;;;32.14;26.11;100841.75;4978209;28;20049;-84
2023/06/24 13:13:33;;;;;;;22.10;3.05;;;;;;;32.22;26.10;100846.63;4995024;28;20042;-86
2023/06/24 13:16:27;;;;;;;8.25;2.05;;;;;;;32.23;26.47;100839.75;4982843;28;20058;-85
2023/06/24 13:19:20;;;;;;;4.40;1.80;;;;;;;32.06;25.63;100840.41;4962775;28;20559;-85
2023/06/24 13:22:14;;;;;;;12.98;2.22;;;;;;;32.07;25.64;100837.13;4962926;28;20045;-85
2023/06/24 13:25:09;;;;;;;17.77;2.47;;;;;;;32.07;25.96;100836.34;4984984;28;20034;-86
2023/06/24 13:27:59;;;;;;;7.55;1.95;;;;;;;32.12;26.30;100839.38;4983488;28;20516;-85
2023/06/24 13:30:54;;;;;;;8.13;2.67;;;;;;;32.11;27.93;100835.00;4991349;28;20038;-84
2023/06/24 13:33:46;;;;;;;2.83;1.77;;;;;;;32.14;26.07;100838.94;4986833;28;20531;-84
2023/06/24 13:36:40;;;;;;;20.15;3.40;;;;;;;32.08;27.17;100830.28;4983308;28;20049;-85
2023/06/24 13:39:35;;;;;;;2.90;1.85;;;;;;;32.09;26.13;100833.88;4971855;28;20046;-85
2023/06/24 13:42:30;;;;;;;3.67;2.03;;;;;;;32.11;26.77;100832.19;4970665;28;20061;-84
2023/06/24 13:45:22;;;;;;;6.18;1.77;;;;;;;32.08;26.00;100826.66;4980266;28;20053;-84